Time,TemperatureF,DewpointF,PressureIn,WindDirection,WindDirectionDegrees,WindSpeedMPH,WindSpeedGustMPH,Humidity,HourlyPrecipIn,Conditions,Clouds,dailyrainin,SolarRadiationWatts/m^2,SoftwareType,DateUTC
2013-05-05 00:02:00,55.7,48.3,30.01,NE,38,4.0,6.0,76,0.00,,,0.00,0.00,VWS V14.01,2013-05-05 04:02:00,
2013-05-05 00:03:00,55.7,48.3,30.01,NE,39,6.0,7.0,76,0.00,,,0.00,0.00,VWS V14.01,2013-05-05 04:03:00,
2013-05-05 00:08:00,55.6,48.2,30.01,East,81,5.0,5.0,76,0.00,,,0.00,0.00,VWS V14.01,2013-05-05 04:08:00,
2013-05-05 00:13:00,55.4,48.0,30.01,East,86,8.0,9.0,76,0.00,,,0.00,0.00,VWS V14.01,2013-05-05 04:13:00,
2013-05-05 00:18:00,55.3,47.9,30.02,NNE,16,1.0,3.0,76,0.00,,,0.00,0.00,VWS V14.01,2013-05-05 04:18:00,
2013-05-05 00:23:00,55.3,47.9,30.02,ENE,69,6.0,6.0,76,0.00,,,0.00,0.00,VWS V14.01,2013-05-05 04:23:00,
2013-05-05 00:28:00,55.1,47.7,30.02,ESE,103,3.0,4.0,76,0.00,,,0.00,0.00,VWS V14.01,2013-05-05 04:28:00,
2013-05-05 00:33:00,55.1,48.0,30.02,ENE,77,0.0,5.0,77,0.00,,,0.00,0.00,VWS V14.01,2013-05-05 04:33:00,
2013-05-05 00:38:00,55.1,48.0,30.02,NNE,27,0.0,1.0,77,0.00,,,0.00,0.00,VWS V14.01,2013-05-05 04:38:00,
2013-05-05 00:43:00,55.0,47.9,30.02,East,98,5.0,5.0,77,0.00,,,0.00,0.00,VWS V14.01,2013-05-05 04:43:00,
2013-05-05 00:48:00,55.0,47.9,30.02,NE,51,7.0,9.0,77,0.00,,,0.00,0.00,VWS V14.01,2013-05-05 04:48:00,
2013-05-05 00:53:00,54.8,47.7,30.02,East,89,3.0,4.0,77,0.00,,,0.00,0.00,VWS V14.01,2013-05-05 04:53:00,
2013-05-05 00:58:00,54.7,47.6,30.02,ENE,72,6.0,7.0,77,0.00,,,0.00,0.00,VWS V14.01,2013-05-05 04:58:00,
2013-05-05 01:03:00,54.7,47.6,30.01,NE,55,4.0,5.0,77,0.00,,,0.00,0.00,VWS V14.01,2013-05-05 05:03:00,
2013-05-05 01:08:00,54.5,47.5,30.01,ESE,111,3.0,6.0,77,0.00,,,0.00,0.00,VWS V14.01,2013-05-05 05:08:00,
2013-05-05 01:13:00,54.4,47.3,30.01,ENE,73,6.0,6.0,77,0.00,,,0.00,0.00,VWS V14.01,2013-05-05 05:13:00,
2013-05-05 01:18:00,54.2,47.2,30.01,ENE,70,5.0,5.0,77,0.00,,,0.00,0.00,VWS V14.01,2013-05-05 05:18:00,
2013-05-05 01:23:00,54.2,47.2,30.01,ENE,57,3.0,6.0,77,0.00,,,0.00,0.00,VWS V14.01,2013-05-05 05:23:00,
2013-05-05 01:28:00,54.1,47.1,30.01,NE,39,4.0,4.0,77,0.00,,,0.00,0.00,VWS V14.01,2013-05-05 05:28:00,
2013-05-05 01:33:00,53.9,46.9,30.01,NE,44,3.0,3.0,77,0.00,,,0.00,0.00,VWS V14.01,2013-05-05 05:33:00,
2013-05-05 01:38:00,53.9,47.2,30.01,ENE,76,6.0,6.0,78,0.00,,,0.00,0.00,VWS V14.01,2013-05-05 05:38:00,
2013-05-05 01:43:00,53.9,47.2,30.01,ENE,76,0.0,0.0,78,0.00,,,0.00,0.00,VWS V14.01,2013-05-05 05:43:00,
2013-05-05 01:48:00,53.9,47.2,30.00,NNE,15,7.0,7.0,78,0.00,,,0.00,0.00,VWS V14.01,2013-05-05 05:48:00,
2013-05-05 01:53:00,53.8,47.5,30.00,North,358,7.0,12.0,79,0.00,,,0.00,0.00,VWS V14.01,2013-05-05 05:53:00,
2013-05-05 01:58:00,53.6,47.3,30.00,SE,126,0.0,0.0,79,0.00,,,0.00,0.00,VWS V14.01,2013-05-05 05:58:00,
2013-05-05 02:03:00,53.5,47.2,30.00,ENE,61,4.0,5.0,79,0.00,,,0.00,0.00,VWS V14.01,2013-05-05 06:03:00,
2013-05-05 02:08:00,53.3,47.0,30.00,North,358,4.0,5.0,79,0.00,,,0.00,0.00,VWS V14.01,2013-05-05 06:08:00,
2013-05-05 02:13:00,53.3,47.0,30.00,NE,41,4.0,5.0,79,0.00,,,0.00,0.00,VWS V14.01,2013-05-05 06:13:00,
2013-05-05 02:18:00,53.2,46.9,30.00,NE,51,0.0,0.0,79,0.00,,,0.00,0.00,VWS V14.01,2013-05-05 06:18:00,
2013-05-05 02:23:00,53.2,47.2,30.00,ENE,60,1.0,1.0,80,0.00,,,0.00,0.00,VWS V14.01,2013-05-05 06:23:00,
2013-05-05 02:28:00,53.1,47.1,30.00,ENE,75,12.0,12.0,80,0.00,,,0.00,0.00,VWS V14.01,2013-05-05 06:28:00,
2013-05-05 02:33:00,53.1,47.1,29.99,NE,53,6.0,6.0,80,0.00,,,0.00,0.00,VWS V14.01,2013-05-05 06:33:00,
2013-05-05 02:38:00,52.9,46.9,29.99,ENE,65,6.0,10.0,80,0.00,,,0.00,0.00,VWS V14.01,2013-05-05 06:38:00,
2013-05-05 02:43:00,52.8,46.8,29.99,NE,50,0.0,0.0,80,0.00,,,0.00,0.00,VWS V14.01,2013-05-05 06:43:00,
2013-05-05 02:48:00,52.8,46.8,29.99,ENE,72,4.0,5.0,80,0.00,,,0.00,0.00,VWS V14.01,2013-05-05 06:48:00,
2013-05-05 02:53:00,52.8,47.1,29.99,ENE,68,5.0,5.0,81,0.00,,,0.00,0.00,VWS V14.01,2013-05-05 06:53:00,
2013-05-05 02:58:00,52.6,46.9,29.99,ENE,57,2.0,4.0,81,0.00,,,0.00,0.00,VWS V14.01,2013-05-05 06:58:00,
2013-05-05 03:03:00,52.6,46.9,29.99,NE,51,0.0,1.0,81,0.00,,,0.00,0.00,VWS V14.01,2013-05-05 07:03:00,
2013-05-05 03:08:00,52.6,46.9,29.99,NNE,30,0.0,0.0,81,0.00,,,0.00,0.00,VWS V14.01,2013-05-05 07:08:00,
2013-05-05 03:13:00,52.6,46.9,29.99,ENE,68,5.0,5.0,81,0.00,,,0.00,0.00,VWS V14.01,2013-05-05 07:13:00,
2013-05-05 03:18:00,52.5,46.8,29.98,NNE,15,0.0,3.0,81,0.00,,,0.00,0.00,VWS V14.01,2013-05-05 07:18:00,
2013-05-05 03:23:00,52.5,46.8,29.98,ENE,66,0.0,0.0,81,0.00,,,0.00,0.00,VWS V14.01,2013-05-05 07:23:00,
2013-05-05 03:27:00,52.3,46.7,29.98,East,83,6.0,6.0,81,0.00,,,0.00,0.00,VWS V14.01,2013-05-05 07:27:00,
2013-05-05 03:32:00,52.3,46.7,29.98,East,82,11.0,11.0,81,0.00,,,0.00,0.00,VWS V14.01,2013-05-05 07:32:00,
2013-05-05 03:37:00,52.2,46.5,29.98,NNE,20,2.0,7.0,81,0.00,,,0.00,0.00,VWS V14.01,2013-05-05 07:37:00,
2013-05-05 03:42:00,52.2,46.5,29.98,ENE,72,4.0,10.0,81,0.00,,,0.00,0.00,VWS V14.01,2013-05-05 07:42:00,
2013-05-05 03:47:00,52.0,46.4,29.98,ENE,69,6.0,10.0,81,0.00,,,0.00,0.00,VWS V14.01,2013-05-05 07:47:00,
2013-05-05 03:52:00,52.0,46.4,29.98,NE,46,3.0,6.0,81,0.00,,,0.00,0.00,VWS V14.01,2013-05-05 07:52:00,
2013-05-05 03:57:00,52.0,46.4,29.98,North,353,0.0,0.0,81,0.00,,,0.00,0.00,VWS V14.01,2013-05-05 07:57:00,
2013-05-05 04:02:00,51.9,46.3,29.97,NNE,30,5.0,5.0,81,0.00,,,0.00,0.00,VWS V14.01,2013-05-05 08:02:00,
2013-05-05 04:07:00,51.9,46.3,29.97,ENE,57,0.0,5.0,81,0.00,,,0.00,0.00,VWS V14.01,2013-05-05 08:07:00,
2013-05-05 04:12:00,51.7,46.4,29.97,ENE,74,4.0,9.0,82,0.00,,,0.00,0.00,VWS V14.01,2013-05-05 08:12:00,
2013-05-05 04:17:00,51.7,46.4,29.96,ENE,63,10.0,10.0,82,0.00,,,0.00,0.00,VWS V14.01,2013-05-05 08:17:00,
2013-05-05 04:22:00,51.6,46.3,29.96,ENE,65,4.0,8.0,82,0.00,,,0.00,0.00,VWS V14.01,2013-05-05 08:22:00,
2013-05-05 04:27:00,51.6,46.3,29.96,East,101,0.0,4.0,82,0.00,,,0.00,0.00,VWS V14.01,2013-05-05 08:27:00,
2013-05-05 04:32:00,51.6,46.3,29.97,ENE,73,6.0,6.0,82,0.00,,,0.00,0.00,VWS V14.01,2013-05-05 08:32:00,
2013-05-05 04:37:00,51.4,46.1,29.97,ENE,70,5.0,10.0,82,0.00,,,0.00,0.00,VWS V14.01,2013-05-05 08:37:00,
2013-05-05 04:42:00,51.3,46.0,29.97,ENE,60,4.0,4.0,82,0.00,,,0.00,0.00,VWS V14.01,2013-05-05 08:42:00,
2013-05-05 04:47:00,51.3,46.0,29.97,ENE,78,4.0,6.0,82,0.00,,,0.00,0.00,VWS V14.01,2013-05-05 08:47:00,
2013-05-05 04:52:00,51.3,46.0,29.97,East,82,2.0,7.0,82,0.00,,,0.00,0.00,VWS V14.01,2013-05-05 08:52:00,
2013-05-05 04:57:00,51.1,45.8,29.97,East,83,3.0,6.0,82,0.00,,,0.00,0.00,VWS V14.01,2013-05-05 08:57:00,
2013-05-05 05:02:00,51.1,45.8,29.97,NNE,33,3.0,6.0,82,0.00,,,0.00,0.00,VWS V14.01,2013-05-05 09:02:00,
2013-05-05 05:07:00,51.1,46.1,29.97,East,84,1.0,4.0,83,0.00,,,0.00,0.00,VWS V14.01,2013-05-05 09:07:00,
2013-05-05 05:12:00,51.0,46.0,29.97,North,0,4.0,9.0,83,0.00,,,0.00,0.00,VWS V14.01,2013-05-05 09:12:00,
2013-05-05 05:17:00,51.0,46.0,29.98,ENE,70,3.0,9.0,83,0.00,,,0.00,0.00,VWS V14.01,2013-05-05 09:17:00,
2013-05-05 05:22:00,50.8,45.8,29.98,NE,42,2.0,7.0,83,0.00,,,0.00,0.00,VWS V14.01,2013-05-05 09:22:00,
2013-05-05 05:27:00,50.7,45.7,29.98,NNE,24,2.0,9.0,83,0.00,,,0.00,0.00,VWS V14.01,2013-05-05 09:27:00,
2013-05-05 05:32:00,50.5,45.5,29.97,ENE,60,0.0,0.0,83,0.00,,,0.00,0.00,VWS V14.01,2013-05-05 09:32:00,
2013-05-05 05:37:00,50.5,45.5,29.97,ENE,66,0.0,6.0,83,0.00,,,0.00,0.00,VWS V14.01,2013-05-05 09:37:00,
2013-05-05 05:42:00,50.4,45.4,29.97,NE,49,0.0,0.0,83,0.00,,,0.00,0.00,VWS V14.01,2013-05-05 09:42:00,
2013-05-05 05:47:00,50.4,45.4,29.97,ENE,69,8.0,8.0,83,0.00,,,0.00,0.00,VWS V14.01,2013-05-05 09:47:00,
2013-05-05 05:52:00,50.4,45.4,29.97,ENE,68,9.0,12.0,83,0.00,,,0.00,0.00,VWS V14.01,2013-05-05 09:52:00,
2013-05-05 05:57:00,50.4,45.4,29.97,NNE,16,7.0,7.0,83,0.00,,,0.00,0.00,VWS V14.01,2013-05-05 09:57:00,
2013-05-05 06:02:00,50.4,45.4,29.97,ENE,70,4.0,6.0,83,0.00,,,0.00,0.00,VWS V14.01,2013-05-05 10:02:00,
2013-05-05 06:07:00,50.2,45.2,29.97,NE,40,2.0,5.0,83,0.00,,,0.00,0.00,VWS V14.01,2013-05-05 10:07:00,
2013-05-05 06:12:00,50.2,45.6,29.97,NE,52,0.0,0.0,84,0.00,,,0.00,0.00,VWS V14.01,2013-05-05 10:12:00,
2013-05-05 06:17:00,50.2,45.6,29.98,North,1,0.0,3.0,84,0.00,,,0.00,0.00,VWS V14.01,2013-05-05 10:17:00,
2013-05-05 06:22:00,50.2,45.6,29.98,North,0,2.0,3.0,84,0.00,,,0.00,0.00,VWS V14.01,2013-05-05 10:22:00,
2013-05-05 06:27:00,50.2,45.6,29.98,East,90,10.0,12.0,84,0.00,,,0.00,0.00,VWS V14.01,2013-05-05 10:27:00,
2013-05-05 06:32:00,50.2,45.6,29.98,ESE,105,3.0,11.0,84,0.00,,,0.00,7.00,VWS V14.01,2013-05-05 10:32:00,
2013-05-05 06:37:00,50.2,45.6,29.98,North,357,4.0,12.0,84,0.00,,,0.00,7.00,VWS V14.01,2013-05-05 10:37:00,
2013-05-05 06:42:00,50.1,45.5,29.98,NE,48,0.0,5.0,84,0.00,,,0.00,12.00,VWS V14.01,2013-05-05 10:42:00,
2013-05-05 06:47:00,50.1,45.5,29.98,East,80,0.0,5.0,84,0.00,,,0.00,12.00,VWS V14.01,2013-05-05 10:47:00,
2013-05-05 06:52:00,50.1,45.5,29.98,NE,47,2.0,3.0,84,0.00,,,0.00,12.00,VWS V14.01,2013-05-05 10:52:00,
2013-05-05 06:57:00,50.2,45.6,29.98,NNE,16,0.0,7.0,84,0.00,,,0.00,19.00,VWS V14.01,2013-05-05 10:57:00,
2013-05-05 07:02:00,50.2,45.6,29.99,ENE,59,8.0,11.0,84,0.00,,,0.00,23.00,VWS V14.01,2013-05-05 11:02:00,
2013-05-05 07:07:00,50.2,45.6,29.99,ESE,105,4.0,12.0,84,0.00,,,0.00,32.00,VWS V14.01,2013-05-05 11:07:00,
2013-05-05 07:12:00,50.2,45.6,29.99,ENE,58,4.0,6.0,84,0.00,,,0.00,35.00,VWS V14.01,2013-05-05 11:12:00,
2013-05-05 07:17:00,50.4,45.8,29.99,East,89,4.0,9.0,84,0.00,,,0.00,33.00,VWS V14.01,2013-05-05 11:17:00,
2013-05-05 07:22:00,50.4,45.8,29.99,NNE,13,9.0,9.0,84,0.00,,,0.00,39.00,VWS V14.01,2013-05-05 11:22:00,
2013-05-05 07:27:00,50.4,45.8,29.99,East,86,6.0,13.0,84,0.00,,,0.00,67.00,VWS V14.01,2013-05-05 11:27:00,
2013-05-05 07:32:00,50.4,45.8,29.99,NNE,15,5.0,5.0,84,0.00,,,0.00,81.00,VWS V14.01,2013-05-05 11:32:00,
2013-05-05 07:37:00,50.5,45.8,29.99,NNW,346,4.0,7.0,84,0.00,,,0.00,54.00,VWS V14.01,2013-05-05 11:37:00,
2013-05-05 07:42:00,50.5,45.8,29.99,NE,47,6.0,6.0,84,0.00,,,0.00,42.00,VWS V14.01,2013-05-05 11:42:00,
2013-05-05 07:47:00,50.7,46.0,29.99,ENE,70,9.0,13.0,84,0.00,,,0.00,62.00,VWS V14.01,2013-05-05 11:47:00,
2013-05-05 07:52:00,50.7,46.0,29.99,North,358,2.0,6.0,84,0.00,,,0.00,72.00,VWS V14.01,2013-05-05 11:52:00,
2013-05-05 07:57:00,50.7,46.0,29.99,NE,41,4.0,7.0,84,0.00,,,0.00,109.00,VWS V14.01,2013-05-05 11:57:00,
2013-05-05 08:02:00,50.8,46.2,29.99,ENE,72,6.0,6.0,84,0.00,,,0.00,79.00,VWS V14.01,2013-05-05 12:02:00,
2013-05-05 08:07:00,51.0,46.0,29.99,ESE,107,0.0,2.0,83,0.00,,,0.00,63.00,VWS V14.01,2013-05-05 12:07:00,
2013-05-05 08:12:00,51.0,46.0,29.99,NE,46,4.0,5.0,83,0.00,,,0.00,74.00,VWS V14.01,2013-05-05 12:12:00,
2013-05-05 08:17:00,51.1,46.1,29.99,ENE,72,3.0,6.0,83,0.00,,,0.00,63.00,VWS V14.01,2013-05-05 12:17:00,
2013-05-05 08:22:00,51.1,46.1,29.99,North,357,3.0,6.0,83,0.00,,,0.00,47.00,VWS V14.01,2013-05-05 12:22:00,
2013-05-05 08:27:00,51.3,46.3,29.99,ENE,57,5.0,7.0,83,0.00,,,0.00,51.00,VWS V14.01,2013-05-05 12:27:00,
2013-05-05 08:32:00,51.3,46.3,30.00,East,101,4.0,9.0,83,0.00,,,0.00,56.00,VWS V14.01,2013-05-05 12:32:00,
2013-05-05 08:37:00,51.3,46.3,30.00,East,85,6.0,10.0,83,0.00,,,0.00,51.00,VWS V14.01,2013-05-05 12:37:00,
2013-05-05 08:42:00,51.4,46.4,30.00,NE,44,0.0,3.0,83,0.00,,,0.00,53.00,VWS V14.01,2013-05-05 12:42:00,
2013-05-05 08:47:00,51.4,46.4,30.00,ENE,65,6.0,6.0,83,0.00,,,0.00,70.00,VWS V14.01,2013-05-05 12:47:00,
2013-05-05 08:52:00,51.6,46.6,30.00,East,92,2.0,4.0,83,0.00,,,0.00,74.00,VWS V14.01,2013-05-05 12:52:00,
2013-05-05 08:57:00,51.7,46.7,30.00,ENE,63,0.0,3.0,83,0.00,,,0.00,107.00,VWS V14.01,2013-05-05 12:57:00,
2013-05-05 09:02:00,51.9,46.6,30.00,North,0,0.0,3.0,82,0.00,,,0.00,84.00,VWS V14.01,2013-05-05 13:02:00,
2013-05-05 09:07:00,52.0,46.7,30.00,NNE,33,6.0,6.0,82,0.00,,,0.00,107.00,VWS V14.01,2013-05-05 13:07:00,
2013-05-05 09:12:00,52.2,46.9,30.00,NE,54,2.0,4.0,82,0.00,,,0.00,114.00,VWS V14.01,2013-05-05 13:12:00,
2013-05-05 09:17:00,52.3,47.0,30.00,North,5,0.0,4.0,82,0.00,,,0.00,137.00,VWS V14.01,2013-05-05 13:17:00,
2013-05-05 09:22:00,52.5,46.8,30.00,ENE,68,2.0,9.0,81,0.00,,,0.00,167.00,VWS V14.01,2013-05-05 13:22:00,
2013-05-05 09:27:00,52.6,46.9,30.00,East,98,0.0,6.0,81,0.00,,,0.00,195.00,VWS V14.01,2013-05-05 13:27:00,
2013-05-05 09:32:00,52.8,47.1,29.99,North,4,3.0,5.0,81,0.00,,,0.00,130.00,VWS V14.01,2013-05-05 13:32:00,
2013-05-05 09:37:00,52.9,46.9,29.99,NNE,31,4.0,4.0,80,0.00,,,0.00,141.00,VWS V14.01,2013-05-05 13:37:00,
2013-05-05 09:42:00,53.1,47.1,29.99,NNW,344,6.0,6.0,80,0.00,,,0.00,165.00,VWS V14.01,2013-05-05 13:42:00,
2013-05-05 09:47:00,53.1,47.1,29.99,East,79,8.0,14.0,80,0.00,,,0.00,174.00,VWS V14.01,2013-05-05 13:47:00,
2013-05-05 09:52:00,53.3,47.3,29.99,NNE,30,0.0,4.0,80,0.00,,,0.00,160.00,VWS V14.01,2013-05-05 13:52:00,
2013-05-05 09:57:00,53.6,47.6,29.99,SE,139,2.0,6.0,80,0.00,,,0.00,188.00,VWS V14.01,2013-05-05 13:57:00,
2013-05-05 10:02:00,53.9,47.5,29.99,ENE,77,10.0,11.0,79,0.00,,,0.00,206.00,VWS V14.01,2013-05-05 14:02:00,
2013-05-05 10:07:00,54.1,48.1,29.99,NNE,28,4.0,6.0,80,0.00,,,0.00,204.00,VWS V14.01,2013-05-05 14:07:00,
2013-05-05 10:12:00,54.4,48.4,29.99,NE,51,7.0,8.0,80,0.00,,,0.00,213.00,VWS V14.01,2013-05-05 14:12:00,
2013-05-05 10:17:00,54.5,48.1,29.99,ENE,66,5.0,10.0,79,0.00,,,0.00,200.00,VWS V14.01,2013-05-05 14:17:00,
2013-05-05 10:22:00,54.7,48.0,29.99,ENE,69,10.0,10.0,78,0.00,,,0.00,200.00,VWS V14.01,2013-05-05 14:22:00,
2013-05-05 10:27:00,54.7,48.0,29.99,NE,56,4.0,4.0,78,0.00,,,0.00,239.00,VWS V14.01,2013-05-05 14:27:00,
2013-05-05 10:32:00,55.0,48.3,29.99,NE,45,10.0,10.0,78,0.00,,,0.00,302.00,VWS V14.01,2013-05-05 14:32:00,
2013-05-05 10:37:00,55.1,48.4,29.99,ENE,58,0.0,0.0,78,0.00,,,0.00,285.00,VWS V14.01,2013-05-05 14:37:00,
2013-05-05 10:42:00,55.3,48.2,29.99,NNE,26,3.0,4.0,77,0.00,,,0.00,229.00,VWS V14.01,2013-05-05 14:42:00,
2013-05-05 10:47:00,55.7,49.0,29.98,ENE,71,6.0,9.0,78,0.00,,,0.00,236.00,VWS V14.01,2013-05-05 14:47:00,
2013-05-05 10:52:00,55.9,48.8,29.98,ENE,72,2.0,9.0,77,0.00,,,0.00,355.00,VWS V14.01,2013-05-05 14:52:00,
2013-05-05 10:57:00,56.0,48.9,29.98,ENE,76,7.0,7.0,77,0.00,,,0.00,320.00,VWS V14.01,2013-05-05 14:57:00,
2013-05-05 11:02:00,56.5,49.4,29.98,East,83,0.0,2.0,77,0.00,,,0.00,283.00,VWS V14.01,2013-05-05 15:02:00,
2013-05-05 11:07:00,56.6,49.1,29.98,ESE,117,11.0,11.0,76,0.00,,,0.00,279.00,VWS V14.01,2013-05-05 15:07:00,
2013-05-05 11:12:00,56.7,49.2,29.98,East,93,5.0,7.0,76,0.00,,,0.00,309.00,VWS V14.01,2013-05-05 15:12:00,
2013-05-05 11:17:00,56.9,49.8,29.99,East,80,6.0,7.0,77,0.00,,,0.00,255.00,VWS V14.01,2013-05-05 15:17:00,
2013-05-05 11:22:00,57.0,49.5,29.99,ENE,62,9.0,9.0,76,0.00,,,0.00,213.00,VWS V14.01,2013-05-05 15:22:00,
2013-05-05 11:27:00,57.0,49.5,29.99,East,88,0.0,5.0,76,0.00,,,0.00,267.00,VWS V14.01,2013-05-05 15:27:00,
2013-05-05 11:32:00,57.2,49.7,29.99,NE,49,12.0,12.0,76,0.00,,,0.00,258.00,VWS V14.01,2013-05-05 15:32:00,
2013-05-05 11:37:00,57.2,49.7,29.99,East,97,6.0,12.0,76,0.00,,,0.00,290.00,VWS V14.01,2013-05-05 15:37:00,
2013-05-05 11:42:00,57.3,49.8,29.99,East,91,10.0,12.0,76,0.00,,,0.00,339.00,VWS V14.01,2013-05-05 15:42:00,
2013-05-05 11:47:00,57.5,50.0,29.99,ENE,70,10.0,13.0,76,0.00,,,0.00,315.00,VWS V14.01,2013-05-05 15:47:00,
2013-05-05 11:52:00,57.5,50.0,29.99,NE,51,9.0,12.0,76,0.00,,,0.00,301.00,VWS V14.01,2013-05-05 15:52:00,
2013-05-05 11:57:00,57.6,50.1,29.99,ESE,106,10.0,11.0,76,0.00,,,0.00,274.00,VWS V14.01,2013-05-05 15:57:00,
2013-05-05 12:04:00,57.8,50.3,29.98,East,101,10.0,13.0,76,0.00,,,0.00,285.00,VWS V14.01,2013-05-05 16:04:00,
2013-05-05 12:09:00,58.0,50.5,29.98,East,94,4.0,9.0,76,0.00,,,0.00,302.00,VWS V14.01,2013-05-05 16:09:00,
2013-05-05 12:14:00,58.1,50.6,29.98,NE,49,5.0,7.0,76,0.00,,,0.00,330.00,VWS V14.01,2013-05-05 16:14:00,
2013-05-05 12:18:00,58.3,50.8,29.98,East,86,5.0,6.0,76,0.00,,,0.00,318.00,VWS V14.01,2013-05-05 16:18:00,
2013-05-05 12:24:00,58.7,51.2,29.98,East,85,7.0,7.0,76,0.00,,,0.00,294.00,VWS V14.01,2013-05-05 16:24:00,
2013-05-05 12:29:00,58.9,51.0,29.98,East,79,3.0,3.0,75,0.00,,,0.00,306.00,VWS V14.01,2013-05-05 16:29:00,
2013-05-05 12:33:00,58.9,51.0,29.97,NE,53,6.0,9.0,75,0.00,,,0.00,272.00,VWS V14.01,2013-05-05 16:33:00,
2013-05-05 12:38:00,58.7,50.8,29.97,NE,42,2.0,6.0,75,0.00,,,0.00,211.00,VWS V14.01,2013-05-05 16:38:00,
2013-05-05 12:43:00,58.7,50.8,29.97,East,88,10.0,12.0,75,0.00,,,0.00,216.00,VWS V14.01,2013-05-05 16:43:00,
2013-05-05 12:48:00,58.6,51.1,29.98,ESE,104,1.0,9.0,76,0.00,,,0.00,179.00,VWS V14.01,2013-05-05 16:48:00,
2013-05-05 12:53:00,58.7,51.2,29.98,East,91,2.0,7.0,76,0.00,,,0.00,214.00,VWS V14.01,2013-05-05 16:53:00,
2013-05-05 12:58:00,58.7,51.2,29.98,North,4,0.0,0.0,76,0.00,,,0.00,185.00,VWS V14.01,2013-05-05 16:58:00,
2013-05-05 13:03:00,58.9,51.4,29.97,ENE,61,1.0,2.0,76,0.00,,,0.00,183.00,VWS V14.01,2013-05-05 17:03:00,
2013-05-05 13:08:00,59.0,51.5,29.97,East,100,4.0,7.0,76,0.00,,,0.00,178.00,VWS V14.01,2013-05-05 17:08:00,
2013-05-05 13:13:00,59.0,51.8,29.97,ENE,58,4.0,9.0,77,0.00,,,0.00,172.00,VWS V14.01,2013-05-05 17:13:00,
2013-05-05 13:18:00,59.2,52.0,29.97,ENE,71,6.0,8.0,77,0.00,,,0.00,139.00,VWS V14.01,2013-05-05 17:18:00,
2013-05-05 13:23:00,59.2,52.0,29.97,NE,39,9.0,9.0,77,0.00,,,0.00,149.00,VWS V14.01,2013-05-05 17:23:00,
2013-05-05 13:28:00,59.2,52.0,29.97,NE,48,7.0,7.0,77,0.00,,,0.00,178.00,VWS V14.01,2013-05-05 17:28:00,
2013-05-05 13:33:00,59.2,52.0,29.97,East,98,5.0,9.0,77,0.00,,,0.00,206.00,VWS V14.01,2013-05-05 17:33:00,
2013-05-05 13:38:00,59.2,52.3,29.97,NE,47,3.0,5.0,78,0.00,,,0.00,209.00,VWS V14.01,2013-05-05 17:38:00,
2013-05-05 13:43:00,59.3,52.5,29.97,NE,53,0.0,5.0,78,0.00,,,0.00,213.00,VWS V14.01,2013-05-05 17:43:00,
2013-05-05 13:48:00,59.5,52.6,29.96,North,8,6.0,6.0,78,0.00,,,0.00,178.00,VWS V14.01,2013-05-05 17:48:00,
2013-05-05 13:53:00,59.5,52.6,29.96,ENE,65,6.0,12.0,78,0.00,,,0.00,223.00,VWS V14.01,2013-05-05 17:53:00,
2013-05-05 13:58:00,59.6,52.7,29.96,NE,34,1.0,10.0,78,0.00,,,0.00,244.00,VWS V14.01,2013-05-05 17:58:00,
2013-05-05 14:03:00,59.8,52.9,29.96,NE,39,3.0,10.0,78,0.00,,,0.00,181.00,VWS V14.01,2013-05-05 18:03:00,
2013-05-05 14:08:00,59.8,52.9,29.96,NE,39,11.0,11.0,78,0.00,,,0.00,225.00,VWS V14.01,2013-05-05 18:08:00,
2013-05-05 14:13:00,59.8,52.9,29.96,NE,56,5.0,13.0,78,0.00,,,0.00,297.00,VWS V14.01,2013-05-05 18:13:00,
2013-05-05 14:18:00,60.1,53.2,29.96,NE,44,2.0,6.0,78,0.00,,,0.00,207.00,VWS V14.01,2013-05-05 18:18:00,
2013-05-05 14:23:00,60.4,53.5,29.96,NNE,31,3.0,5.0,78,0.00,,,0.00,185.00,VWS V14.01,2013-05-05 18:23:00,
2013-05-05 14:28:00,60.7,53.8,29.96,NE,45,2.0,5.0,78,0.00,,,0.00,214.00,VWS V14.01,2013-05-05 18:28:00,
2013-05-05 14:33:00,61.0,53.8,29.96,East,100,0.0,3.0,77,0.00,,,0.00,230.00,VWS V14.01,2013-05-05 18:33:00,
2013-05-05 14:38:00,61.0,53.8,29.96,SE,124,11.0,17.0,77,0.00,,,0.00,149.00,VWS V14.01,2013-05-05 18:38:00,
2013-05-05 14:43:00,61.0,53.8,29.96,ESE,120,10.0,10.0,77,0.00,,,0.00,127.00,VWS V14.01,2013-05-05 18:43:00,
2013-05-05 14:48:00,60.9,53.7,29.96,East,85,6.0,9.0,77,0.00,,,0.00,104.00,VWS V14.01,2013-05-05 18:48:00,
2013-05-05 14:53:00,60.9,53.7,29.96,NE,45,5.0,9.0,77,0.00,,,0.00,113.00,VWS V14.01,2013-05-05 18:53:00,
2013-05-05 14:58:00,60.9,53.7,29.96,ESE,116,3.0,6.0,77,0.00,,,0.00,116.00,VWS V14.01,2013-05-05 18:58:00,
2013-05-05 15:03:00,60.9,53.7,29.95,NNE,23,6.0,7.0,77,0.00,,,0.00,93.00,VWS V14.01,2013-05-05 19:03:00,
2013-05-05 15:08:00,60.9,54.0,29.95,East,84,2.0,5.0,78,0.00,,,0.00,84.00,VWS V14.01,2013-05-05 19:08:00,
2013-05-05 15:13:00,60.7,53.8,29.95,ENE,73,5.0,6.0,78,0.00,,,0.00,98.00,VWS V14.01,2013-05-05 19:13:00,
2013-05-05 15:18:00,60.7,53.8,29.95,ENE,72,4.0,5.0,78,0.00,,,0.00,130.00,VWS V14.01,2013-05-05 19:18:00,
2013-05-05 15:23:00,60.9,54.0,29.95,East,92,6.0,7.0,78,0.00,,,0.00,137.00,VWS V14.01,2013-05-05 19:23:00,
2013-05-05 15:28:00,60.9,54.3,29.95,SE,143,5.0,6.0,79,0.00,,,0.00,156.00,VWS V14.01,2013-05-05 19:28:00,
2013-05-05 15:33:00,60.9,54.3,29.95,SE,143,3.0,6.0,79,0.00,,,0.00,102.00,VWS V14.01,2013-05-05 19:33:00,
2013-05-05 15:38:00,60.9,54.3,29.95,ENE,66,5.0,10.0,79,0.00,,,0.00,107.00,VWS V14.01,2013-05-05 19:38:00,
2013-05-05 15:43:00,60.9,54.3,29.95,NE,46,4.0,4.0,79,0.00,,,0.00,102.00,VWS V14.01,2013-05-05 19:43:00,
2013-05-05 15:48:00,60.9,54.3,29.94,East,91,5.0,7.0,79,0.00,,,0.00,88.00,VWS V14.01,2013-05-05 19:48:00,
2013-05-05 15:53:00,60.9,54.3,29.94,NE,39,7.0,10.0,79,0.00,,,0.00,88.00,VWS V14.01,2013-05-05 19:53:00,
2013-05-05 15:58:00,60.9,54.3,29.94,East,84,7.0,11.0,79,0.00,,,0.00,130.00,VWS V14.01,2013-05-05 19:58:00,
2013-05-05 16:03:00,60.9,54.7,29.93,NE,53,14.0,16.0,80,0.00,,,0.00,104.00,VWS V14.01,2013-05-05 20:03:00,
2013-05-05 16:08:00,60.7,54.5,29.93,East,101,7.0,9.0,80,0.00,,,0.00,134.00,VWS V14.01,2013-05-05 20:08:00,
2013-05-05 16:13:00,60.5,54.7,29.93,NE,55,14.0,15.0,81,0.00,,,0.00,149.00,VWS V14.01,2013-05-05 20:13:00,
2013-05-05 16:18:00,60.7,54.8,29.93,NE,54,0.0,4.0,81,0.00,,,0.00,223.00,VWS V14.01,2013-05-05 20:18:00,
2013-05-05 16:23:00,60.9,54.7,29.93,East,86,10.0,10.0,80,0.00,,,0.00,207.00,VWS V14.01,2013-05-05 20:23:00,
2013-05-05 16:28:00,61.0,54.8,29.93,ENE,58,0.0,4.0,80,0.00,,,0.00,181.00,VWS V14.01,2013-05-05 20:28:00,
2013-05-05 16:33:00,61.0,54.8,29.93,North,354,3.0,11.0,80,0.00,,,0.00,176.00,VWS V14.01,2013-05-05 20:33:00,
2013-05-05 16:38:00,60.9,54.7,29.93,East,82,7.0,13.0,80,0.00,,,0.00,167.00,VWS V14.01,2013-05-05 20:38:00,
2013-05-05 16:43:00,60.7,54.5,29.93,ENE,57,11.0,14.0,80,0.00,,,0.00,128.00,VWS V14.01,2013-05-05 20:43:00,
2013-05-05 16:48:00,60.5,54.7,29.93,ENE,58,5.0,13.0,81,0.00,,,0.00,104.00,VWS V14.01,2013-05-05 20:48:00,
2013-05-05 16:53:00,60.4,54.9,29.93,NE,51,3.0,9.0,82,0.00,,,0.00,113.00,VWS V14.01,2013-05-05 20:53:00,
2013-05-05 16:58:00,60.2,55.0,29.93,ENE,74,6.0,12.0,83,0.00,,,0.00,74.00,VWS V14.01,2013-05-05 20:58:00,
2013-05-05 17:03:00,60.2,55.3,29.92,East,81,7.0,7.0,84,0.00,,,0.00,84.00,VWS V14.01,2013-05-05 21:03:00,
2013-05-05 17:08:00,59.9,55.1,29.92,ENE,78,15.0,15.0,84,0.00,,,0.00,88.00,VWS V14.01,2013-05-05 21:08:00,
2013-05-05 17:13:00,59.8,55.3,29.92,ENE,63,4.0,4.0,85,0.00,,,0.00,86.00,VWS V14.01,2013-05-05 21:13:00,
2013-05-05 17:18:00,59.6,55.1,29.92,ENE,72,5.0,7.0,85,0.00,,,0.00,81.00,VWS V14.01,2013-05-05 21:18:00,
2013-05-05 17:23:00,59.6,55.1,29.92,NE,36,0.0,7.0,85,0.00,,,0.00,62.00,VWS V14.01,2013-05-05 21:23:00,
2013-05-05 17:28:00,59.6,54.8,29.92,NE,40,0.0,5.0,84,0.00,,,0.00,49.00,VWS V14.01,2013-05-05 21:28:00,
2013-05-05 17:33:00,59.8,55.0,29.92,ENE,68,3.0,6.0,84,0.00,,,0.00,46.00,VWS V14.01,2013-05-05 21:33:00,
2013-05-05 17:38:00,59.6,54.8,29.92,ENE,58,4.0,6.0,84,0.00,,,0.00,51.00,VWS V14.01,2013-05-05 21:38:00,
2013-05-05 17:43:00,59.6,55.1,29.92,East,92,10.0,10.0,85,0.00,,,0.00,46.00,VWS V14.01,2013-05-05 21:43:00,
2013-05-05 17:48:00,59.5,55.0,29.92,North,4,1.0,10.0,85,0.00,,,0.00,44.00,VWS V14.01,2013-05-05 21:48:00,
2013-05-05 17:53:00,59.5,55.0,29.92,ENE,69,5.0,6.0,85,0.00,,,0.00,49.00,VWS V14.01,2013-05-05 21:53:00,
2013-05-05 17:58:00,59.5,54.7,29.92,ENE,67,0.0,7.0,84,0.00,,,0.00,44.00,VWS V14.01,2013-05-05 21:58:00,
2013-05-05 18:03:00,59.6,54.8,29.92,East,86,3.0,5.0,84,0.00,,,0.00,65.00,VWS V14.01,2013-05-05 22:03:00,
2013-05-05 18:08:00,59.6,54.8,29.92,East,91,10.0,10.0,84,0.00,,,0.00,35.00,VWS V14.01,2013-05-05 22:08:00,
2013-05-05 18:13:00,59.6,54.4,29.92,East,83,3.0,6.0,83,0.00,,,0.00,53.00,VWS V14.01,2013-05-05 22:13:00,
2013-05-05 18:18:00,59.6,54.4,29.92,ENE,59,2.0,7.0,83,0.00,,,0.00,37.00,VWS V14.01,2013-05-05 22:18:00,
2013-05-05 18:23:00,59.6,54.4,29.92,NE,48,3.0,5.0,83,0.00,,,0.00,35.00,VWS V14.01,2013-05-05 22:23:00,
2013-05-05 18:28:00,59.6,54.8,29.92,East,93,9.0,9.0,84,0.00,,,0.00,40.00,VWS V14.01,2013-05-05 22:28:00,
2013-05-05 18:33:00,59.6,54.8,29.92,East,79,7.0,7.0,84,0.00,,,0.00,47.00,VWS V14.01,2013-05-05 22:33:00,
2013-05-05 18:38:00,59.6,54.8,29.92,East,84,9.0,9.0,84,0.00,,,0.00,40.00,VWS V14.01,2013-05-05 22:38:00,
2013-05-05 18:43:00,59.6,54.8,29.92,ENE,68,3.0,3.0,84,0.00,,,0.00,53.00,VWS V14.01,2013-05-05 22:43:00,
2013-05-05 18:48:00,59.6,54.8,29.91,NNE,22,3.0,10.0,84,0.00,,,0.00,65.00,VWS V14.01,2013-05-05 22:48:00,
2013-05-05 18:53:00,59.6,54.4,29.91,ESE,105,0.0,3.0,83,0.00,,,0.00,84.00,VWS V14.01,2013-05-05 22:53:00,
2013-05-05 18:58:00,59.8,54.6,29.91,ENE,63,0.0,0.0,83,0.00,,,0.00,39.00,VWS V14.01,2013-05-05 22:58:00,
2013-05-05 19:03:00,59.8,54.6,29.91,East,91,2.0,6.0,83,0.00,,,0.00,32.00,VWS V14.01,2013-05-05 23:03:00,
2013-05-05 19:08:00,59.8,54.6,29.91,ENE,72,0.0,4.0,83,0.00,,,0.00,33.00,VWS V14.01,2013-05-05 23:08:00,
2013-05-05 19:13:00,59.8,54.6,29.91,ENE,63,4.0,6.0,83,0.00,,,0.00,28.00,VWS V14.01,2013-05-05 23:13:00,
2013-05-05 19:18:00,59.8,54.6,29.91,NE,44,4.0,4.0,83,0.00,,,0.00,16.00,VWS V14.01,2013-05-05 23:18:00,
2013-05-05 19:23:00,59.6,54.1,29.91,NE,41,0.0,4.0,82,0.00,,,0.00,16.00,VWS V14.01,2013-05-05 23:23:00,
2013-05-05 19:28:00,59.6,54.1,29.91,NE,47,5.0,9.0,82,0.00,,,0.00,18.00,VWS V14.01,2013-05-05 23:28:00,
2013-05-05 19:33:00,59.6,54.1,29.91,ENE,57,7.0,7.0,82,0.00,,,0.00,18.00,VWS V14.01,2013-05-05 23:33:00,
2013-05-05 19:38:00,59.6,54.1,29.91,NE,51,1.0,11.0,82,0.00,,,0.00,14.00,VWS V14.01,2013-05-05 23:38:00,
2013-05-05 19:43:00,59.6,54.1,29.91,ENE,72,11.0,11.0,82,0.00,,,0.00,7.00,VWS V14.01,2013-05-05 23:43:00,
2013-05-05 19:48:00,59.6,54.1,29.91,East,85,3.0,5.0,82,0.00,,,0.00,5.00,VWS V14.01,2013-05-05 23:48:00,
2013-05-05 19:53:00,59.6,54.1,29.91,ESE,107,6.0,7.0,82,0.00,,,0.00,5.00,VWS V14.01,2013-05-05 23:53:00,
2013-05-05 19:58:00,59.6,54.1,29.91,NE,44,5.0,7.0,82,0.00,,,0.00,0.00,VWS V14.01,2013-05-05 23:58:00,
2013-05-05 20:03:00,59.6,54.1,29.92,ENE,57,4.0,8.0,82,0.00,,,0.00,0.00,VWS V14.01,2013-05-06 00:03:00,
2013-05-05 20:08:00,59.6,54.1,29.92,ENE,75,0.0,1.0,82,0.00,,,0.00,0.00,VWS V14.01,2013-05-06 00:08:00,
2013-05-05 20:13:00,59.6,54.1,29.92,East,94,4.0,4.0,82,0.00,,,0.00,0.00,VWS V14.01,2013-05-06 00:13:00,
2013-05-05 20:18:00,59.6,54.1,29.91,East,87,3.0,6.0,82,0.00,,,0.00,0.00,VWS V14.01,2013-05-06 00:18:00,
2013-05-05 20:23:00,59.6,54.1,29.91,East,81,3.0,6.0,82,0.00,,,0.00,0.00,VWS V14.01,2013-05-06 00:23:00,
2013-05-05 20:28:00,59.6,54.1,29.91,East,89,3.0,3.0,82,0.00,,,0.00,0.00,VWS V14.01,2013-05-06 00:28:00,
2013-05-05 20:33:00,59.6,54.1,29.92,East,82,4.0,11.0,82,0.00,,,0.00,0.00,VWS V14.01,2013-05-06 00:33:00,
2013-05-05 20:38:00,59.6,54.1,29.92,East,93,10.0,10.0,82,0.00,,,0.00,0.00,VWS V14.01,2013-05-06 00:38:00,
2013-05-05 20:43:00,59.6,53.8,29.92,ESE,123,8.0,12.0,81,0.00,,,0.00,0.00,VWS V14.01,2013-05-06 00:43:00,
2013-05-05 20:48:00,59.6,53.8,29.92,East,95,6.0,12.0,81,0.00,,,0.00,0.00,VWS V14.01,2013-05-06 00:48:00,
2013-05-05 20:53:00,59.6,53.8,29.92,East,101,5.0,7.0,81,0.00,,,0.00,0.00,VWS V14.01,2013-05-06 00:53:00,
2013-05-05 20:58:00,59.6,53.8,29.92,ENE,77,11.0,11.0,81,0.00,,,0.00,0.00,VWS V14.01,2013-05-06 00:58:00,
2013-05-05 21:03:00,59.6,53.8,29.92,ENE,78,5.0,7.0,81,0.00,,,0.00,0.00,VWS V14.01,2013-05-06 01:03:00,
2013-05-05 21:08:00,59.6,53.8,29.92,ENE,71,7.0,10.0,81,0.00,,,0.00,0.00,VWS V14.01,2013-05-06 01:08:00,
2013-05-05 21:13:00,59.6,53.8,29.92,ESE,116,6.0,14.0,81,0.00,,,0.00,0.00,VWS V14.01,2013-05-06 01:13:00,
2013-05-05 21:18:00,59.6,53.8,29.92,East,94,5.0,7.0,81,0.00,,,0.00,0.00,VWS V14.01,2013-05-06 01:18:00,
2013-05-05 21:23:00,59.5,54.0,29.92,East,98,0.0,4.0,82,0.00,,,0.00,0.00,VWS V14.01,2013-05-06 01:23:00,
2013-05-05 21:28:00,59.5,54.0,29.92,NNE,31,5.0,9.0,82,0.00,,,0.00,0.00,VWS V14.01,2013-05-06 01:28:00,
2013-05-05 21:33:00,59.5,54.0,29.92,ESE,105,12.0,13.0,82,0.00,,,0.00,0.00,VWS V14.01,2013-05-06 01:33:00,
2013-05-05 21:47:00,59.3,53.8,29.93,ENE,70,16.0,16.0,82,0.00,,,0.00,0.00,VWS V14.01,2013-05-06 01:47:00,
2013-05-05 21:52:00,59.3,53.8,29.93,ENE,60,3.0,6.0,82,0.00,,,0.00,0.00,VWS V14.01,2013-05-06 01:52:00,
2013-05-05 21:57:00,59.3,53.8,29.93,ENE,72,4.0,9.0,82,0.00,,,0.00,0.00,VWS V14.01,2013-05-06 01:57:00,
2013-05-05 22:02:00,59.2,54.0,29.93,SE,124,5.0,7.0,83,0.00,,,0.00,0.00,VWS V14.01,2013-05-06 02:02:00,
2013-05-05 22:07:00,59.2,54.0,29.93,ESE,103,4.0,4.0,83,0.00,,,0.00,0.00,VWS V14.01,2013-05-06 02:07:00,
2013-05-05 22:12:00,59.0,54.2,29.93,East,94,2.0,15.0,84,0.00,,,0.00,0.00,VWS V14.01,2013-05-06 02:12:00,
2013-05-05 22:17:00,59.0,54.2,29.93,ESE,114,4.0,10.0,84,0.00,,,0.00,0.00,VWS V14.01,2013-05-06 02:17:00,
2013-05-05 22:22:00,58.9,54.1,29.93,East,86,7.0,12.0,84,0.00,,,0.00,0.00,VWS V14.01,2013-05-06 02:22:00,
2013-05-05 22:27:00,58.9,54.1,29.93,East,100,3.0,7.0,84,0.00,,,0.00,0.00,VWS V14.01,2013-05-06 02:27:00,
2013-05-05 22:32:00,58.7,53.9,29.93,ENE,72,4.0,7.0,84,0.00,,,0.00,0.00,VWS V14.01,2013-05-06 02:32:00,
2013-05-05 22:37:00,58.7,53.9,29.93,ESE,105,9.0,12.0,84,0.00,,,0.00,0.00,VWS V14.01,2013-05-06 02:37:00,
2013-05-05 22:42:00,58.7,53.9,29.93,East,91,17.0,17.0,84,0.00,,,0.00,0.00,VWS V14.01,2013-05-06 02:42:00,
2013-05-05 22:47:00,58.7,53.9,29.93,SE,129,7.0,7.0,84,0.00,,,0.00,0.00,VWS V14.01,2013-05-06 02:47:00,
2013-05-05 22:52:00,58.7,53.9,29.93,ENE,59,6.0,6.0,84,0.00,,,0.00,0.00,VWS V14.01,2013-05-06 02:52:00,
2013-05-05 22:57:00,58.7,53.9,29.93,East,88,3.0,5.0,84,0.00,,,0.00,0.00,VWS V14.01,2013-05-06 02:57:00,
2013-05-05 23:02:00,58.7,53.9,29.93,ENE,77,5.0,9.0,84,0.00,,,0.00,0.00,VWS V14.01,2013-05-06 03:02:00,
2013-05-05 23:07:00,58.6,53.8,29.93,NE,51,7.0,7.0,84,0.00,,,0.00,0.00,VWS V14.01,2013-05-06 03:07:00,
2013-05-05 23:12:00,58.6,53.8,29.93,ESE,108,6.0,7.0,84,0.00,,,0.00,0.00,VWS V14.01,2013-05-06 03:12:00,
2013-05-05 23:17:00,58.6,53.8,29.92,NNE,32,10.0,14.0,84,0.00,,,0.00,0.00,VWS V14.01,2013-05-06 03:17:00,
2013-05-05 23:22:00,58.4,53.9,29.92,ENE,61,0.0,11.0,85,0.00,,,0.00,0.00,VWS V14.01,2013-05-06 03:22:00,
2013-05-05 23:27:00,58.4,53.9,29.92,East,95,8.0,9.0,85,0.00,,,0.00,0.00,VWS V14.01,2013-05-06 03:27:00,
2013-05-05 23:32:00,58.3,53.8,29.92,SE,127,4.0,10.0,85,0.00,,,0.00,0.00,VWS V14.01,2013-05-06 03:32:00,
2013-05-05 23:37:00,58.3,53.8,29.92,East,86,7.0,10.0,85,0.00,,,0.00,0.00,VWS V14.01,2013-05-06 03:37:00,
2013-05-05 23:42:00,58.1,53.6,29.92,SE,131,4.0,7.0,85,0.00,,,0.00,0.00,VWS V14.01,2013-05-06 03:42:00,
2013-05-05 23:47:00,58.1,53.9,29.92,East,96,5.0,10.0,86,0.00,,,0.00,0.00,VWS V14.01,2013-05-06 03:47:00,
2013-05-05 23:52:00,58.1,53.9,29.92,ESE,110,6.0,7.0,86,0.00,,,0.00,0.00,VWS V14.01,2013-05-06 03:52:00,
2013-05-05 23:57:00,58.1,53.9,29.92,East,89,3.0,7.0,86,0.00,,,0.00,0.00,VWS V14.01,2013-05-06 03:57:00,